createdAt,value
2023-03-18T00:02:02.306Z,2.67
2023-03-18T00:05:07.622Z,2.78
2023-03-18T00:08:11.471Z,2.50
2023-03-18T00:11:18.705Z,1.67
2023-03-18T00:14:21.315Z,2.58
2023-03-18T00:17:24.070Z,2.10
2023-03-18T00:20:38.596Z,2.10
2023-03-18T00:23:42.201Z,2.08
2023-03-18T00:26:45.035Z,3.05
2023-03-18T00:29:47.537Z,3.00
2023-03-18T00:32:50.225Z,2.88
2023-03-18T00:35:53.385Z,3.05
2023-03-18T00:38:57.994Z,2.88
2023-03-18T00:42:08.212Z,2.60
2023-03-18T00:45:12.007Z,2.72
2023-03-18T00:48:14.705Z,2.38
2023-03-18T00:51:18.540Z,2.60
2023-03-18T00:54:21.345Z,2.70
2023-03-18T00:57:25.369Z,3.13
2023-03-18T01:00:28.042Z,3.17
2023-03-18T01:03:31.770Z,2.40
2023-03-18T01:06:37.806Z,2.15
2023-03-18T01:09:40.907Z,2.10
2023-03-18T01:12:47.215Z,1.83
2023-03-18T01:15:51.220Z,2.33
2023-03-18T01:18:54.129Z,2.38
2023-03-18T01:21:57.136Z,1.73
2023-03-18T01:25:00.019Z,2.13
2023-03-18T01:28:09.482Z,2.17
2023-03-18T01:31:12.822Z,2.47
2023-03-18T01:34:17.670Z,2.65
2023-03-18T01:37:25.175Z,2.55
2023-03-18T01:40:40.662Z,2.45
2023-03-18T01:43:45.263Z,2.50
2023-03-18T01:46:50.218Z,2.92
2023-03-18T01:49:54.563Z,3.00
2023-03-18T01:53:03.025Z,2.77
2023-03-18T01:56:07.893Z,2.63
2023-03-18T01:59:12.695Z,2.63
2023-03-18T02:02:17.093Z,2.10
2023-03-18T02:08:28.053Z,2.65
2023-03-18T02:11:38.344Z,2.03
2023-03-18T02:14:41.324Z,2.30
2023-03-18T02:17:53.771Z,4.07
2023-03-18T02:21:16.200Z,8.38
2023-03-18T02:24:19.968Z,7.13
2023-03-18T02:27:27.909Z,5.25
2023-03-18T02:30:35.645Z,3.00
2023-03-18T02:33:42.768Z,3.53
2023-03-18T02:36:46.331Z,2.95
2023-03-18T02:39:49.275Z,2.95
2023-03-18T02:42:52.608Z,3.88
2023-03-18T02:46:08.140Z,4.83
2023-03-18T02:49:11.110Z,3.10
2023-03-18T02:52:13.946Z,2.45
2023-03-18T02:55:16.967Z,2.70
2023-03-18T02:58:19.556Z,2.80
2023-03-18T03:01:24.917Z,2.78
2023-03-18T03:04:27.972Z,2.47
2023-03-18T03:07:30.731Z,2.50
2023-03-18T03:10:35.281Z,2.85
2023-03-18T03:13:43.043Z,3.05
2023-03-18T03:16:47.516Z,2.47
2023-03-18T03:19:52.240Z,2.22
2023-03-18T03:22:55.254Z,2.75
2023-03-18T03:25:58.007Z,2.97
2023-03-18T03:29:05.072Z,3.00
2023-03-18T03:32:07.806Z,2.40
2023-03-18T03:35:14.644Z,3.30
2023-03-18T03:38:17.596Z,2.88
2023-03-18T03:41:20.236Z,2.60
2023-03-18T03:44:25.157Z,3.20
2023-03-18T03:47:27.733Z,2.90
2023-03-18T03:50:30.714Z,3.08
2023-03-18T03:53:34.148Z,2.83
2023-03-18T03:56:36.921Z,3.10
2023-03-18T03:59:39.553Z,3.17
2023-03-18T04:02:54.412Z,4.15
2023-03-18T04:05:58.753Z,3.88
2023-03-18T04:09:04.991Z,4.45
2023-03-18T04:12:09.864Z,3.88
2023-03-18T04:15:14.327Z,4.18
2023-03-18T04:18:18.692Z,4.43
2023-03-18T04:21:22.346Z,3.72
2023-03-18T04:24:30.605Z,2.80
2023-03-18T04:27:33.986Z,3.00
2023-03-18T04:30:41.783Z,4.00
2023-03-18T04:33:49.628Z,3.28
2023-03-18T04:36:52.186Z,4.75
2023-03-18T04:39:55.651Z,4.47
2023-03-18T04:42:59.160Z,4.80
2023-03-18T04:46:04.012Z,4.93
2023-03-18T04:49:07.732Z,6.33
2023-03-18T04:52:11.347Z,5.70
2023-03-18T04:55:16.375Z,5.30
2023-03-18T04:58:19.236Z,5.40
2023-03-18T05:01:34.517Z,5.55
2023-03-18T05:04:38.837Z,6.28
2023-03-18T05:07:43.318Z,5.65
2023-03-18T05:10:50.650Z,6.20
2023-03-18T05:13:54.319Z,5.35
2023-03-18T05:16:57.248Z,5.18
2023-03-18T05:20:00.640Z,6.80
2023-03-18T05:23:04.935Z,8.07
2023-03-18T05:26:18.846Z,7.30
2023-03-18T05:29:23.935Z,9.03
2023-03-18T05:32:47.385Z,7.20
2023-03-18T05:35:51.196Z,5.80
2023-03-18T05:38:57.742Z,6.13
2023-03-18T05:42:02.381Z,7.38
2023-03-18T05:45:07.431Z,8.93
2023-03-18T05:48:13.536Z,5.80
2023-03-18T05:51:26.550Z,8.67
2023-03-18T05:54:29.386Z,7.97
2023-03-18T05:57:32.835Z,8.23
2023-03-18T06:00:39.787Z,7.23
2023-03-18T06:03:42.928Z,10.15
2023-03-18T06:06:46.515Z,11.98
2023-03-18T06:09:50.083Z,8.77
2023-03-18T06:12:55.494Z,9.07
2023-03-18T06:16:00.366Z,10.52
2023-03-18T06:19:05.440Z,18.25
2023-03-18T06:22:08.118Z,9.43
2023-03-18T06:25:11.774Z,14.85
2023-03-18T06:28:15.930Z,7.88
2023-03-18T06:31:19.763Z,15.40
2023-03-18T06:34:22.485Z,9.48
2023-03-18T06:37:25.115Z,11.82
2023-03-18T06:40:27.836Z,9.95
2023-03-18T06:43:31.896Z,7.03
2023-03-18T06:46:35.996Z,10.88
2023-03-18T06:49:39.986Z,9.38
2023-03-18T06:52:51.363Z,7.80
2023-03-18T06:56:00.238Z,9.63
2023-03-18T06:59:11.031Z,7.40
2023-03-18T07:02:15.760Z,6.13
2023-03-18T07:05:20.703Z,4.93
2023-03-18T07:08:29.570Z,5.97
2023-03-18T07:11:32.195Z,4.75
2023-03-18T07:14:41.400Z,5.55
2023-03-18T07:17:44.958Z,5.82
2023-03-18T07:20:48.407Z,4.93
2023-03-18T07:23:52.304Z,5.60
2023-03-18T07:26:54.921Z,5.97
2023-03-18T07:29:57.502Z,6.13
2023-03-18T07:33:01.120Z,6.60
2023-03-18T07:36:04.468Z,6.20
2023-03-18T07:39:08.026Z,4.90
2023-03-18T07:42:11.602Z,5.97
2023-03-18T07:45:21.067Z,9.00
2023-03-18T07:48:23.600Z,12.43
2023-03-18T07:51:26.540Z,21.73
2023-03-18T07:54:29.235Z,23.77
2023-03-18T07:57:31.845Z,8.05
2023-03-18T08:00:35.728Z,7.80
2023-03-18T08:03:38.583Z,5.27
2023-03-18T08:06:41.630Z,4.32
2023-03-18T08:09:44.316Z,4.43
2023-03-18T08:12:53.268Z,4.38
2023-03-18T08:15:56.603Z,4.97
2023-03-18T08:18:59.806Z,5.53
2023-03-18T08:22:02.697Z,5.15
2023-03-18T08:25:05.747Z,4.83
2023-03-18T08:28:08.415Z,4.78
2023-03-18T08:31:11.172Z,5.70
2023-03-18T08:34:14.402Z,5.00
2023-03-18T08:37:16.977Z,5.28
2023-03-18T08:40:20.520Z,5.22
2023-03-18T08:43:23.079Z,5.45
2023-03-18T08:46:26.042Z,5.18
2023-03-18T08:49:29.682Z,4.32
2023-03-18T08:52:32.626Z,4.80
2023-03-18T08:55:40.777Z,5.20
2023-03-18T08:58:46.370Z,5.28
2023-03-18T09:01:49.354Z,5.38
2023-03-18T09:04:54.435Z,5.57
2023-03-18T09:07:58.872Z,5.82
2023-03-18T09:11:01.534Z,5.18
2023-03-18T09:14:04.539Z,5.80
2023-03-18T09:17:07.332Z,5.50
2023-03-18T09:20:12.198Z,4.90
2023-03-18T09:23:15.800Z,5.72
2023-03-18T09:26:18.792Z,4.50
2023-03-18T09:29:21.661Z,5.57
2023-03-18T09:32:24.735Z,5.15
2023-03-18T09:35:31.611Z,5.47
2023-03-18T09:38:35.392Z,5.53
2023-03-18T09:41:54.124Z,5.13
2023-03-18T09:45:02.977Z,4.95
2023-03-18T09:48:14.613Z,5.25
2023-03-18T09:51:26.022Z,5.25
2023-03-18T09:54:52.147Z,5.28
2023-03-18T09:58:01.339Z,4.50
2023-03-18T10:01:07.292Z,4.60
2023-03-18T10:04:34.315Z,4.97
2023-03-18T10:07:42.919Z,4.70
2023-03-18T10:10:47.688Z,4.55
2023-03-18T10:14:01.144Z,4.70
2023-03-18T10:17:41.867Z,4.15
2023-03-18T10:21:11.942Z,5.07
2023-03-18T10:24:32.144Z,5.40
2023-03-18T10:28:01.354Z,4.82
2023-03-18T10:31:32.198Z,4.20
2023-03-18T10:34:59.569Z,5.05
2023-03-18T10:38:25.434Z,4.43
2023-03-18T10:41:37.814Z,5.07
2023-03-18T10:44:42.139Z,4.88
2023-03-18T10:47:52.733Z,4.43
2023-03-18T10:51:19.536Z,4.10
2023-03-18T10:54:32.970Z,4.45
2023-03-18T10:57:35.551Z,4.68
2023-03-18T11:00:38.315Z,5.55
2023-03-18T11:04:01.726Z,5.03
2023-03-18T11:07:08.598Z,4.72
2023-03-18T11:10:18.800Z,4.50
2023-03-18T11:13:24.421Z,4.83
2023-03-18T11:16:30.683Z,4.78
2023-03-18T11:19:41.909Z,4.43
2023-03-18T11:22:50.686Z,4.30
2023-03-18T11:25:55.550Z,4.00
2023-03-18T11:29:04.950Z,4.22
2023-03-18T11:32:34.195Z,3.58
2023-03-18T11:36:06.963Z,3.60
2023-03-18T11:39:15.190Z,3.17
2023-03-18T11:42:22.185Z,4.13
2023-03-18T11:46:04.783Z,4.53
2023-03-18T11:49:13.265Z,3.85
2023-03-18T11:52:22.429Z,3.50
2023-03-18T11:55:41.982Z,3.70
2023-03-18T11:58:47.274Z,3.70
2023-03-18T12:01:59.660Z,3.60
2023-03-18T12:05:40.596Z,4.05
2023-03-18T12:08:50.257Z,3.60
2023-03-18T12:12:26.868Z,4.68
2023-03-18T12:15:33.644Z,3.65
2023-03-18T12:18:58.888Z,3.20
2023-03-18T12:22:01.370Z,2.85
2023-03-18T12:25:20.800Z,3.78
2023-03-18T12:28:42.909Z,3.65
2023-03-18T12:32:06.246Z,3.72
2023-03-18T12:35:20.869Z,3.00
2023-03-18T12:38:42.281Z,2.75
2023-03-18T12:42:01.304Z,3.20
2023-03-18T12:45:10.937Z,3.40
2023-03-18T12:48:18.166Z,3.30
2023-03-18T12:51:28.916Z,3.13
2023-03-18T12:54:41.494Z,2.92
2023-03-18T12:57:54.588Z,3.10
2023-03-18T13:01:08.703Z,2.78
2023-03-18T13:04:16.382Z,2.97
2023-03-18T13:07:28.591Z,3.17
2023-03-18T13:10:36.463Z,2.80
2023-03-18T13:13:46.105Z,4.17
2023-03-18T13:16:50.536Z,3.30
2023-03-18T13:19:53.310Z,2.90
2023-03-18T13:23:16.230Z,2.23
2023-03-18T13:26:52.503Z,2.10
2023-03-18T13:30:11.606Z,2.13
2023-03-18T13:33:40.032Z,1.92
2023-03-18T13:36:54.408Z,2.17
2023-03-18T13:39:58.817Z,2.03
2023-03-18T13:43:03.621Z,1.50
2023-03-18T13:46:20.212Z,2.30
2023-03-18T13:49:27.235Z,2.03
2023-03-18T13:52:36.195Z,2.53
2023-03-18T13:55:38.714Z,2.03
2023-03-18T13:58:47.743Z,1.98
2023-03-18T14:01:50.974Z,1.70
2023-03-18T14:04:53.857Z,1.95
2023-03-18T14:07:56.473Z,2.38
2023-03-18T14:11:17.285Z,2.08
2023-03-18T14:14:38.399Z,2.03
2023-03-18T14:17:47.868Z,2.00
2023-03-18T14:20:55.120Z,2.15
2023-03-18T14:24:07.618Z,2.53
2023-03-18T14:27:18.723Z,2.37
2023-03-18T14:30:39.930Z,2.10
2023-03-18T14:33:58.949Z,2.17
2023-03-18T14:37:20.067Z,2.33
2023-03-18T14:40:23.255Z,2.20
2023-03-18T14:43:33.897Z,1.85
2023-03-18T14:46:41.749Z,2.13
2023-03-18T14:50:07.180Z,1.87
2023-03-18T14:53:29.397Z,2.40
2023-03-18T14:56:40.094Z,1.90
2023-03-18T14:59:42.994Z,1.70
2023-03-18T15:02:46.154Z,1.63
2023-03-18T15:05:49.491Z,1.70
2023-03-18T15:09:00.107Z,1.88
2023-03-18T15:12:17.079Z,1.95
2023-03-18T15:15:19.734Z,2.30
2023-03-18T15:18:29.654Z,2.15
2023-03-18T15:21:38.339Z,2.00
2023-03-18T15:24:41.271Z,1.95
2023-03-18T15:27:43.937Z,2.20
2023-03-18T15:30:58.482Z,2.30
2023-03-18T15:34:05.280Z,2.33
2023-03-18T15:37:33.860Z,1.63
2023-03-18T15:40:52.859Z,2.10
2023-03-18T15:43:55.478Z,1.70
2023-03-18T15:47:13.693Z,1.83
2023-03-18T15:50:19.558Z,1.77
2023-03-18T15:53:23.876Z,2.83
2023-03-18T15:56:31.760Z,3.35
2023-03-18T15:59:34.980Z,2.40
2023-03-18T16:02:38.383Z,2.30
2023-03-18T16:05:41.019Z,1.40
2023-03-18T16:08:46.080Z,1.63
2023-03-18T16:12:09.189Z,1.85
2023-03-18T16:15:21.971Z,2.03
2023-03-18T16:18:25.586Z,1.95
2023-03-18T16:21:28.254Z,1.70
2023-03-18T16:24:30.874Z,1.97
2023-03-18T16:27:39.313Z,1.90
2023-03-18T16:30:42.214Z,2.00
2023-03-18T16:33:46.393Z,1.80
2023-03-18T16:36:56.499Z,2.53
2023-03-18T16:39:59.336Z,3.88
2023-03-18T16:43:02.235Z,3.88
2023-03-18T16:46:05.789Z,3.63
2023-03-18T16:49:24.390Z,6.22
2023-03-18T16:52:27.062Z,7.30
2023-03-18T16:55:29.929Z,8.27
2023-03-18T16:58:35.426Z,6.60
2023-03-18T17:01:38.606Z,5.88
2023-03-18T17:04:42.753Z,6.50
2023-03-18T17:07:46.937Z,5.95
2023-03-18T17:10:52.844Z,5.43
2023-03-18T17:13:56.441Z,6.65
2023-03-18T17:17:02.614Z,5.85
2023-03-18T17:20:16.946Z,5.20
2023-03-18T17:23:26.801Z,5.30
2023-03-18T17:26:29.921Z,4.87
2023-03-18T17:29:32.729Z,5.32
2023-03-18T17:32:36.253Z,6.85
2023-03-18T17:35:39.082Z,6.60
2023-03-18T17:38:41.865Z,6.60
2023-03-18T17:41:44.657Z,6.22
2023-03-18T17:44:47.268Z,7.13
2023-03-18T17:47:50.339Z,6.93
2023-03-18T17:50:58.807Z,7.22
2023-03-18T17:54:05.606Z,8.05
2023-03-18T17:57:14.636Z,8.13
2023-03-18T18:00:24.819Z,8.25
2023-03-18T18:03:29.396Z,8.25
2023-03-18T18:06:33.742Z,8.33
2023-03-18T18:09:37.347Z,7.53
2023-03-18T18:12:40.274Z,8.70
2023-03-18T18:15:43.982Z,6.82
2023-03-18T18:18:49.496Z,8.27
2023-03-18T18:21:53.271Z,7.90
2023-03-18T18:24:57.883Z,10.50
2023-03-18T18:28:00.878Z,10.37
2023-03-18T18:31:05.900Z,9.55
2023-03-18T18:34:08.900Z,9.82
2023-03-18T18:37:12.035Z,9.63
2023-03-18T18:40:17.170Z,11.93
2023-03-18T18:43:21.362Z,10.90
2023-03-18T18:46:25.157Z,10.10
2023-03-18T18:49:28.872Z,9.68
2023-03-18T18:52:34.120Z,9.18
2023-03-18T18:55:38.819Z,8.13
2023-03-18T18:58:42.292Z,7.33
2023-03-18T19:01:45.213Z,8.18
2023-03-18T19:04:48.270Z,6.90
2023-03-18T19:07:52.753Z,5.20
2023-03-18T19:10:57.539Z,5.28
2023-03-18T19:14:33.311Z,5.72
2023-03-18T19:17:38.578Z,4.97
2023-03-18T19:20:42.014Z,5.40
2023-03-18T19:23:45.898Z,5.30
2023-03-18T19:26:48.839Z,4.57
2023-03-18T19:29:54.694Z,4.43
2023-03-18T19:32:59.887Z,4.20
2023-03-18T19:36:30.573Z,3.65
2023-03-18T19:39:33.687Z,3.53
2023-03-18T19:42:36.559Z,3.42
2023-03-18T19:45:41.148Z,3.63
2023-03-18T19:48:44.353Z,3.30
2023-03-18T19:51:47.621Z,3.70
2023-03-18T19:54:51.496Z,3.78
2023-03-18T19:57:55.120Z,3.38
2023-03-18T20:00:59.531Z,3.93
2023-03-18T20:04:02.495Z,3.92
2023-03-18T20:07:06.528Z,3.92
2023-03-18T20:10:11.370Z,4.50
2023-03-18T20:13:17.407Z,4.03
2023-03-18T20:16:21.766Z,3.88
2023-03-18T20:19:24.695Z,3.55
2023-03-18T20:22:34.456Z,4.00
2023-03-18T20:25:41.249Z,4.00
2023-03-18T20:28:45.798Z,4.13
2023-03-18T20:31:48.695Z,6.17
2023-03-18T20:34:52.022Z,13.90
2023-03-18T20:37:57.577Z,18.38
2023-03-18T20:41:01.104Z,12.93
2023-03-18T20:44:04.742Z,11.07
2023-03-18T20:47:07.398Z,9.05
2023-03-18T20:50:19.135Z,10.20
2023-03-18T20:53:29.005Z,8.05
2023-03-18T20:56:32.987Z,8.52
2023-03-18T20:59:35.918Z,10.43
2023-03-18T21:02:38.855Z,8.40
2023-03-18T21:05:41.616Z,8.25
2023-03-18T21:08:44.701Z,6.68
2023-03-18T21:11:47.884Z,5.87
2023-03-18T21:14:50.663Z,5.78
2023-03-18T21:17:54.203Z,7.97
2023-03-18T21:20:57.753Z,6.85
2023-03-18T21:24:00.793Z,6.32
2023-03-18T21:27:05.799Z,6.88
2023-03-18T21:30:10.028Z,7.05
2023-03-18T21:33:17.975Z,5.47
2023-03-18T21:36:21.788Z,6.93
2023-03-18T21:39:24.438Z,5.50
2023-03-18T21:42:32.900Z,7.17
2023-03-18T21:45:35.968Z,7.38
2023-03-18T21:48:39.078Z,6.50
2023-03-18T21:51:43.215Z,6.18
2023-03-18T21:54:47.087Z,8.60
2023-03-18T21:57:49.775Z,8.90
2023-03-18T22:00:58.110Z,8.57
2023-03-18T22:04:01.361Z,9.70
2023-03-18T22:07:04.016Z,9.73
2023-03-18T22:10:07.442Z,8.85
2023-03-18T22:13:25.090Z,8.47
2023-03-18T22:16:28.071Z,8.18
2023-03-18T22:19:30.721Z,8.02
2023-03-18T22:22:37.059Z,9.13
2023-03-18T22:25:41.301Z,10.35
2023-03-18T22:28:45.199Z,11.00
2023-03-18T22:31:47.874Z,10.48
2023-03-18T22:34:51.215Z,10.03
2023-03-18T22:37:54.407Z,10.80
2023-03-18T22:40:57.765Z,10.07
2023-03-18T22:44:02.735Z,11.37
2023-03-18T22:47:05.730Z,10.25
2023-03-18T22:50:08.750Z,11.05
2023-03-18T22:53:27.355Z,12.07
2023-03-18T22:56:32.245Z,11.40
2023-03-18T22:59:34.899Z,12.18
2023-03-18T23:02:37.763Z,10.80
2023-03-18T23:05:40.660Z,10.03
2023-03-18T23:08:43.254Z,9.48
2023-03-18T23:11:45.971Z,9.68
2023-03-18T23:14:48.641Z,9.53
2023-03-18T23:17:51.323Z,8.00
2023-03-18T23:20:54.103Z,9.32
2023-03-18T23:23:57.391Z,9.20
2023-03-18T23:26:59.923Z,9.23
2023-03-18T23:30:02.533Z,10.82
2023-03-18T23:33:06.036Z,9.15
2023-03-18T23:36:09.266Z,8.37
2023-03-18T23:39:12.796Z,10.32
2023-03-18T23:42:17.425Z,9.75
2023-03-18T23:45:20.109Z,9.13
2023-03-18T23:48:22.868Z,9.65
2023-03-18T23:51:25.521Z,9.77
2023-03-18T23:54:28.428Z,9.02
2023-03-18T23:57:31.366Z,10.23
